Time;durP1;ratioP1;P1;durP2;ratioP2;P2;SDS_P1;SDS_P2;PMS_P1;PMS_P2;Temp;Humidity;BMP_temperature;BMP_pressure;BME280_temperature;BME280_humidity;BME280_pressure;Samples;Min_cycle;Max_cycle;Signal;HPM_P1;HPM_P2
2022/06/08 00:00:25;;;;;;;6.30;3.80;;;;;;;14.66;76.87;100741.80;107535;1250;70429;-68
2022/06/08 00:03:12;;;;;;;6.50;3.60;;;;;;;14.65;77.08;100738.21;107592;1247;70094;-66
2022/06/08 00:05:42;;;;;;;6.10;3.80;;;;;;;14.67;77.11;100739.40;107579;1247;74691;-67
2022/06/08 00:08:10;;;;;;;6.30;3.80;;;;;;;14.67;76.84;100736.02;107459;1246;63922;-68
2022/06/08 00:10:40;;;;;;;6.40;3.70;;;;;;;14.72;76.68;100738.05;107398;1247;61973;-67
2022/06/08 00:13:09;;;;;;;5.20;3.80;;;;;;;14.70;76.16;100740.02;107502;1247;70714;-69
2022/06/08 00:15:40;;;;;;;8.20;4.10;;;;;;;14.66;75.99;100741.30;107499;1247;71472;-65
2022/06/08 00:18:10;;;;;;;6.70;4.00;;;;;;;14.59;75.41;100740.98;107538;1249;69089;-66
2022/06/08 00:20:40;;;;;;;5.90;3.70;;;;;;;14.58;75.88;100744.03;107555;1250;71994;-64
2022/06/08 00:23:09;;;;;;;5.90;4.20;;;;;;;14.65;76.27;100743.83;107546;1247;61864;-67
2022/06/08 00:25:37;;;;;;;8.50;3.80;;;;;;;14.73;76.07;100744.17;107618;1247;61263;-65
2022/06/08 00:28:07;;;;;;;6.20;4.00;;;;;;;14.78;76.09;100747.16;107503;1247;73865;-67
2022/06/08 00:30:36;;;;;;;6.30;3.70;;;;;;;14.85;75.87;100743.70;107504;1249;70383;-66
2022/06/08 00:33:05;;;;;;;7.70;3.50;;;;;;;14.94;75.72;100746.29;107647;1247;68542;-66
2022/06/08 00:35:34;;;;;;;7.80;3.90;;;;;;;15.02;75.39;100751.10;107631;1247;73344;-66
2022/06/08 00:38:03;;;;;;;8.50;4.10;;;;;;;15.00;75.70;100749.08;107681;1249;61861;-66
2022/06/08 00:40:45;;;;;;;6.30;3.80;;;;;;;14.98;75.65;100751.16;107628;1250;60419;-66
2022/06/08 00:43:15;;;;;;;8.80;4.00;;;;;;;14.86;75.72;100748.00;107793;1247;74584;-66
2022/06/08 00:45:46;;;;;;;5.70;4.30;;;;;;;14.76;75.82;100744.03;107644;1249;70078;-67
2022/06/08 00:48:17;;;;;;;5.60;3.90;;;;;;;14.66;76.43;100744.56;107594;1250;70610;-67
2022/06/08 00:50:51;;;;;;;5.50;3.90;;;;;;;14.58;76.80;100745.08;107484;1249;71571;-68
2022/06/08 00:53:30;;;;;;;8.80;4.20;;;;;;;14.50;76.73;100740.77;107216;1249;61363;-68
2022/06/08 00:56:05;;;;;;;8.50;3.90;;;;;;;14.42;77.75;100738.41;107457;1247;61262;-66
2022/06/08 00:58:36;;;;;;;7.10;3.60;;;;;;;14.38;78.13;100735.30;107233;1250;73591;-70
2022/06/08 01:01:06;;;;;;;6.60;3.80;;;;;;;14.36;78.08;100731.92;107268;1247;71429;-68
2022/06/08 01:03:34;;;;;;;7.60;4.20;;;;;;;14.36;78.19;100727.93;107212;1248;71198;-65
2022/06/08 01:06:34;;;;;;;5.20;3.60;;;;;;;14.48;77.77;100726.20;107261;1248;73829;-67
2022/06/08 01:09:04;;;;;;;9.70;4.20;;;;;;;14.51;77.49;100727.33;106977;1247;63467;-68
2022/06/08 01:11:44;;;;;;;12.10;4.40;;;;;;;14.40;77.88;100727.05;107896;1247;59193;-67
2022/06/08 01:14:19;;;;;;;6.50;3.80;;;;;;;14.32;78.23;100731.05;107286;1248;71707;-68
2022/06/08 01:16:59;;;;;;;5.60;3.80;;;;;;;14.25;78.42;100729.80;107320;1247;72037;-66
2022/06/08 01:19:28;;;;;;;7.20;3.80;;;;;;;14.22;78.93;100734.45;107141;1248;70655;-68
2022/06/08 01:22:01;;;;;;;7.10;4.00;;;;;;;14.23;78.76;100730.09;107211;1247;73023;-67
2022/06/08 01:24:50;;;;;;;7.00;4.20;;;;;;;14.19;79.07;100732.92;107196;1247;62469;-66
2022/06/08 01:27:55;;;;;;;6.90;4.60;;;;;;;14.19;79.02;100729.39;107094;1250;59603;-67
2022/06/08 01:30:39;;;;;;;6.90;4.20;;;;;;;14.12;78.14;100725.98;107111;1250;71225;-68
2022/06/08 01:33:41;;;;;;;15.00;4.80;;;;;;;14.03;78.71;100722.02;107201;1250;69571;-67
2022/06/08 01:36:29;;;;;;;7.90;4.30;;;;;;;13.96;80.14;100718.92;107243;1247;68357;-66
2022/06/08 01:39:16;;;;;;;11.90;4.60;;;;;;;13.97;80.11;100719.02;107516;1247;72496;-67
2022/06/08 01:41:48;;;;;;;8.10;4.60;;;;;;;13.92;80.13;100722.33;107170;1247;63048;-67
2022/06/08 01:48:03;;;;;;;6.70;4.10;;;;;;;13.80;80.67;100719.80;107126;1249;71285;-67
2022/06/08 01:51:09;;;;;;;7.70;4.30;;;;;;;13.74;80.92;100718.09;107243;1247;69793;-67
2022/06/08 01:53:50;;;;;;;9.00;4.50;;;;;;;13.68;81.24;100717.75;107262;1247;68750;-67
2022/06/08 01:56:48;;;;;;;6.30;3.80;;;;;;;13.65;81.22;100718.34;107309;1247;73570;-68
2022/06/08 01:59:35;;;;;;;5.90;3.80;;;;;;;13.61;81.45;100720.20;107340;1247;61816;-66
2022/06/08 02:02:31;;;;;;;9.20;4.20;;;;;;;13.60;81.71;100718.59;107164;1250;60138;-66
2022/06/08 02:05:40;;;;;;;7.90;4.00;;;;;;;13.57;81.75;100718.67;107312;1249;73559;-67
2022/06/08 02:08:18;;;;;;;7.70;4.90;;;;;;;13.58;81.94;100714.69;107405;1247;70762;-68
2022/06/08 02:11:11;;;;;;;10.10;4.70;;;;;;;13.64;81.70;100713.65;107359;1247;69779;-67
2022/06/08 02:14:07;;;;;;;8.00;4.20;;;;;;;13.65;81.40;100709.55;107242;1247;74544;-67
2022/06/08 02:17:09;;;;;;;6.80;5.10;;;;;;;13.61;81.57;100710.92;107300;1250;63866;-68
2022/06/08 02:19:54;;;;;;;9.80;5.30;;;;;;;13.57;81.65;100709.55;107318;1247;60859;-67
2022/06/08 02:22:32;;;;;;;11.90;5.10;;;;;;;13.54;81.96;100706.11;107164;1250;72198;-67
2022/06/08 02:25:26;;;;;;;17.40;5.00;;;;;;;13.55;82.07;100705.39;107385;1247;71467;-68
2022/06/08 02:28:08;;;;;;;12.00;4.80;;;;;;;13.56;81.88;100702.41;107262;1250;68514;-69
2022/06/08 02:30:51;;;;;;;14.20;4.90;;;;;;;13.60;81.70;100708.08;107215;1247;71256;-67
2022/06/08 02:36:49;;;;;;;10.70;5.20;;;;;;;13.54;82.11;100706.80;107074;1250;60540;-68
2022/06/08 02:39:31;;;;;;;9.80;4.80;;;;;;;13.57;82.14;100713.42;107183;1250;72880;-67
2022/06/08 02:42:13;;;;;;;9.40;4.70;;;;;;;13.62;81.91;100709.27;107233;1247;70031;-67
2022/06/08 02:44:47;;;;;;;10.40;4.40;;;;;;;13.79;81.20;100710.85;107180;1250;69463;-69
2022/06/08 02:47:30;;;;;;;11.60;5.00;;;;;;;13.83;81.09;100711.02;107223;1247;72267;-69
2022/06/08 02:50:09;;;;;;;13.60;5.30;;;;;;;13.80;80.94;100712.27;107431;1250;60992;-69
2022/06/08 02:52:45;;;;;;;13.40;6.70;;;;;;;13.74;81.08;100702.86;107100;1250;59892;-71
2022/06/08 02:55:27;;;;;;;9.70;4.80;;;;;;;13.73;81.56;100708.33;107219;1250;73528;-72
2022/06/08 02:58:17;;;;;;;14.60;5.10;;;;;;;13.74;81.50;100712.31;107458;1250;72599;-70
2022/06/08 03:01:21;;;;;;;13.80;4.90;;;;;;;13.78;81.43;100713.02;107392;1250;68586;-71
2022/06/08 03:03:56;;;;;;;14.00;5.30;;;;;;;13.83;81.26;100715.01;107408;1248;73966;-70
2022/06/08 03:06:33;;;;;;;16.60;5.90;;;;;;;13.87;81.21;100714.66;107320;1248;61615;-73
2022/06/08 03:09:07;;;;;;;18.20;5.40;;;;;;;13.90;81.16;100712.50;107552;1247;59842;-67
2022/06/08 03:11:43;;;;;;;24.80;6.60;;;;;;;13.98;81.03;100717.56;107220;1249;73294;-65
2022/06/08 03:14:16;;;;;;;35.30;7.00;;;;;;;14.04;80.95;100718.79;107454;1247;71273;-70
2022/06/08 03:17:06;;;;;;;33.60;6.00;;;;;;;14.06;80.76;100718.45;107295;1250;69107;-68
2022/06/08 03:19:37;;;;;;;37.20;7.60;;;;;;;14.12;80.87;100718.34;107335;1250;73792;-68
2022/06/08 03:22:06;;;;;;;21.00;6.50;;;;;;;14.17;80.83;100718.39;107178;1249;62724;-68
2022/06/08 03:24:36;;;;;;;25.90;6.90;;;;;;;14.24;80.65;100719.13;107323;1248;59278;-69
2022/06/08 03:27:08;;;;;;;26.10;6.70;;;;;;;14.33;80.59;100714.67;107414;1247;71796;-67
2022/06/08 03:29:39;;;;;;;28.50;6.80;;;;;;;14.43;80.33;100715.72;107387;1250;69566;-66
2022/06/08 03:32:08;;;;;;;32.70;7.20;;;;;;;14.53;80.12;100715.91;107373;1247;70587;-66
2022/06/08 03:34:37;;;;;;;29.10;7.00;;;;;;;14.63;79.86;100716.16;107423;1247;72305;-69
2022/06/08 03:37:08;;;;;;;26.20;7.00;;;;;;;14.73;79.49;100718.14;107095;1250;61390;-68
2022/06/08 03:39:39;;;;;;;15.40;7.00;;;;;;;14.89;78.88;100722.01;107690;1248;58812;-70
2022/06/08 03:42:09;;;;;;;24.50;6.40;;;;;;;15.02;78.37;100714.71;107178;1250;70882;-66
2022/06/08 03:44:38;;;;;;;13.80;6.10;;;;;;;15.12;78.09;100715.20;107268;1248;71827;-68
2022/06/08 03:47:15;;;;;;;32.00;7.60;;;;;;;15.20;77.61;100709.35;107221;1247;70838;-70
2022/06/08 03:49:44;;;;;;;33.40;9.20;;;;;;;15.29;77.95;100711.20;107262;1250;71595;-69
2022/06/08 03:52:24;;;;;;;19.00;6.70;;;;;;;15.39;77.44;100705.86;107202;1250;62238;-70
2022/06/08 03:55:00;;;;;;;24.30;7.30;;;;;;;15.52;76.83;100705.68;107471;1247;60524;-73
2022/06/08 03:57:30;;;;;;;24.30;7.30;;;;;;;15.62;76.25;100702.95;107640;1248;71441;-72
2022/06/08 04:00:05;;;;;;;29.70;7.80;;;;;;;15.72;75.89;100702.47;107718;1250;72135;-71
2022/06/08 04:02:49;;;;;;;21.90;8.30;;;;;;;15.86;75.32;100700.23;107369;1250;69049;-74
2022/06/08 04:05:24;;;;;;;21.10;6.50;;;;;;;15.97;75.44;100701.64;107356;1247;74126;-72
2022/06/08 04:07:54;;;;;;;12.30;6.10;;;;;;;16.08;74.16;100701.65;107779;1247;63720;-68
2022/06/08 04:10:26;;;;;;;16.30;5.20;;;;;;;16.15;73.06;100707.98;107773;1250;59591;-70
2022/06/08 04:12:58;;;;;;;11.60;6.10;;;;;;;16.10;72.79;100704.80;107523;1250;71933;-74
2022/06/08 04:15:44;;;;;;;12.20;6.30;;;;;;;16.03;72.99;100707.95;107467;1247;72284;-68
2022/06/08 04:18:22;;;;;;;14.20;6.00;;;;;;;15.96;73.40;100702.95;107497;1247;71243;-73
2022/06/08 04:20:57;;;;;;;14.60;6.20;;;;;;;15.96;73.60;100705.42;107595;1247;70864;-74
2022/06/08 04:23:33;;;;;;;16.60;6.40;;;;;;;16.02;73.49;100702.04;107500;1248;62181;-74
2022/06/08 04:26:03;;;;;;;18.00;6.60;;;;;;;16.10;73.32;100705.30;107246;1250;62045;-73
2022/06/08 04:28:33;;;;;;;15.80;7.50;;;;;;;16.20;72.99;100705.46;107201;1247;74054;-74
2022/06/08 04:31:07;;;;;;;13.20;6.30;;;;;;;16.33;72.64;100707.89;107331;1250;71839;-71
2022/06/08 04:33:38;;;;;;;17.00;7.80;;;;;;;16.42;72.32;100706.77;107544;1247;68731;-73
2022/06/08 04:36:14;;;;;;;12.70;7.60;;;;;;;16.53;72.14;100706.23;107476;1250;75418;-74
2022/06/08 04:38:43;;;;;;;16.80;7.90;;;;;;;16.62;71.89;100705.04;107455;1250;62707;-72
2022/06/08 04:41:14;;;;;;;13.20;7.50;;;;;;;16.73;71.70;100701.16;107370;1249;60658;-69
2022/06/08 04:43:43;;;;;;;11.90;6.70;;;;;;;16.88;71.14;100698.31;107473;1246;73941;-71
2022/06/08 04:46:15;;;;;;;17.00;8.30;;;;;;;17.01;70.44;100700.45;107503;1247;71844;-69
2022/06/08 04:48:47;;;;;;;17.80;7.40;;;;;;;17.11;69.98;100703.68;107415;1247;70321;-71
2022/06/08 04:51:16;;;;;;;12.30;7.70;;;;;;;17.23;69.68;100704.27;107203;1247;72639;-69
2022/06/08 04:53:47;;;;;;;14.40;7.90;;;;;;;17.31;69.24;100703.46;107925;1249;60298;-68
2022/06/08 04:56:18;;;;;;;17.80;8.70;;;;;;;17.37;69.27;100706.70;107179;1249;60483;-71
2022/06/08 04:58:49;;;;;;;15.60;6.80;;;;;;;17.45;69.05;100705.34;107354;1247;72301;-70
2022/06/08 05:01:18;;;;;;;16.70;8.50;;;;;;;17.61;68.08;100704.87;107320;1247;72983;-71
2022/06/08 05:03:49;;;;;;;18.80;8.70;;;;;;;17.76;67.19;100703.29;107310;1250;70975;-72
2022/06/08 05:06:19;;;;;;;23.70;8.70;;;;;;;17.91;66.65;100699.60;107400;1248;73519;-74
2022/06/08 05:08:49;;;;;;;36.30;11.40;;;;;;;18.08;66.06;100698.95;106870;1250;418648;-71
2022/06/08 05:11:21;;;;;;;20.70;9.10;;;;;;;18.22;65.53;100697.23;107332;1247;58902;-72
2022/06/08 05:13:50;;;;;;;16.90;8.70;;;;;;;18.37;65.66;100694.77;107277;1247;64832;-72
2022/06/08 05:16:20;;;;;;;12.00;7.40;;;;;;;18.53;65.10;100699.46;107421;1248;70792;-73
2022/06/08 05:18:52;;;;;;;13.70;7.60;;;;;;;18.67;64.57;100701.41;107371;1247;71918;-71
2022/06/08 05:21:21;;;;;;;16.60;7.50;;;;;;;18.76;64.00;100703.03;107180;1250;63774;-71
2022/06/08 05:23:51;;;;;;;10.50;6.90;;;;;;;18.84;63.65;100701.69;107452;1247;61435;-69
2022/06/08 05:26:25;;;;;;;13.50;7.60;;;;;;;18.88;62.80;100702.45;107289;1249;59122;-75
2022/06/08 05:28:54;;;;;;;15.20;7.10;;;;;;;18.98;62.89;100701.91;107543;1247;62106;-71
2022/06/08 05:31:29;;;;;;;12.40;7.40;;;;;;;19.12;62.90;100707.84;107380;1248;71450;-71
2022/06/08 05:33:59;;;;;;;17.30;8.30;;;;;;;19.22;62.35;100705.88;107521;1247;70117;-72
2022/06/08 05:36:28;;;;;;;15.90;8.00;;;;;;;19.33;62.14;100702.20;107590;1247;73658;-71
2022/06/08 05:38:59;;;;;;;75.90;29.50;;;;;;;19.46;62.01;100704.09;107533;1247;58907;-71
2022/06/08 05:41:32;;;;;;;15.70;8.90;;;;;;;19.64;62.02;100706.36;107385;1250;58339;-73
2022/06/08 05:44:01;;;;;;;16.30;9.10;;;;;;;19.82;61.60;100709.79;107430;1248;63010;-77
2022/06/08 05:46:30;;;;;;;23.80;8.70;;;;;;;19.99;61.62;100707.98;107368;1250;61535;-74
2022/06/08 05:49:03;;;;;;;14.60;8.70;;;;;;;20.15;61.13;100708.95;107542;1248;69858;-77
2022/06/08 05:51:34;;;;;;;13.20;7.90;;;;;;;20.32;60.29;100706.65;107685;1247;74678;-77
2022/06/08 05:54:04;;;;;;;16.70;7.60;;;;;;;20.48;60.03;100708.23;107472;1247;61303;-79
2022/06/08 05:56:35;;;;;;;18.70;8.10;;;;;;;20.61;59.43;100707.30;107213;1250;57522;-76
2022/06/08 05:59:04;;;;;;;18.30;7.50;;;;;;;20.77;59.65;100708.08;107296;1247;63291;-75
2022/06/08 06:01:34;;;;;;;16.50;6.70;;;;;;;20.91;59.07;100703.95;107482;1247;72603;-76
2022/06/08 06:04:07;;;;;;;11.40;6.80;;;;;;;21.10;59.08;100707.45;107397;1250;59897;-75
2022/06/08 06:06:38;;;;;;;14.10;6.70;;;;;;;21.28;58.14;100711.20;107328;1248;73959;-78
2022/06/08 06:09:09;;;;;;;17.00;6.40;;;;;;;21.43;56.87;100713.45;107520;1249;61112;-75
2022/06/08 06:11:38;;;;;;;15.90;5.90;;;;;;;21.52;56.86;100711.23;107502;1249;59229;-77
2022/06/08 06:14:09;;;;;;;9.20;5.10;;;;;;;21.64;56.83;100714.73;107454;1250;62240;-75
2022/06/08 06:16:41;;;;;;;7.30;4.60;;;;;;;21.81;54.78;100712.17;107572;1247;69770;-78
2022/06/08 06:19:10;;;;;;;12.10;4.90;;;;;;;21.93;53.31;100714.04;107382;1250;70645;-75
2022/06/08 06:21:57;;;;;;;10.90;4.30;;;;;;;22.05;53.34;100715.40;107433;1251;74499;-80
2022/06/08 06:24:34;;;;;;;6.70;3.70;;;;;;;22.17;51.57;100717.52;107479;1251;61102;-79
2022/06/08 06:27:07;;;;;;;6.10;3.00;;;;;;;22.29;50.79;100713.30;107338;1250;61171;-77
2022/06/08 06:29:54;;;;;;;10.60;4.10;;;;;;;22.41;49.22;100712.70;107578;1246;63920;-78
2022/06/08 06:32:39;;;;;;;10.90;5.10;;;;;;;22.58;50.20;100710.42;107657;1248;61662;-81
2022/06/08 06:35:22;;;;;;;11.50;3.90;;;;;;;22.71;48.20;100711.21;107432;1251;70518;-81
2022/06/08 06:37:53;;;;;;;14.90;4.80;;;;;;;22.83;46.62;100710.96;107547;1247;73161;-78
2022/06/08 06:40:22;;;;;;;4.30;3.10;;;;;;;22.93;45.55;100709.64;107537;1247;58906;-79
2022/06/08 06:42:52;;;;;;;10.70;3.20;;;;;;;23.07;43.96;100705.79;107535;1250;60527;-78
2022/06/08 06:45:40;;;;;;;4.90;2.80;;;;;;;23.21;43.98;100704.88;107681;1248;62639;-75
2022/06/08 06:48:58;;;;;;;8.60;3.40;;;;;;;23.40;44.47;100702.92;107477;1250;61603;-74
2022/06/08 06:51:28;;;;;;;5.40;3.10;;;;;;;23.58;45.00;100707.84;107424;1250;69920;-73
2022/06/08 06:53:57;;;;;;;6.90;3.20;;;;;;;23.72;43.31;100704.30;107506;1248;62876;-74
2022/06/08 06:56:27;;;;;;;7.80;3.00;;;;;;;23.88;43.81;100700.11;107474;1248;60548;-79
2022/06/08 06:59:02;;;;;;;7.20;3.00;;;;;;;24.04;42.52;100699.60;107313;1251;59120;-78
2022/06/08 07:01:34;;;;;;;9.80;3.70;;;;;;;24.24;44.29;100701.03;107059;1251;64808;-79
2022/06/08 07:04:03;;;;;;;9.30;2.90;;;;;;;24.42;41.08;100698.83;107187;1248;71987;-78
2022/06/08 07:06:32;;;;;;;7.30;3.00;;;;;;;24.43;40.46;100694.63;107160;1251;71253;-75
2022/06/08 07:09:03;;;;;;;5.90;2.50;;;;;;;24.47;39.28;100695.70;107493;1247;66446;-80
2022/06/08 07:11:42;;;;;;;3.90;2.60;;;;;;;24.47;38.62;100695.09;107337;1248;60266;-80
2022/06/08 07:14:23;;;;;;;4.60;2.70;;;;;;;24.54;38.11;100695.84;107312;1251;59048;-78
2022/06/08 07:17:15;;;;;;;7.70;2.60;;;;;;;24.77;38.14;100694.36;107272;1250;62190;-77
2022/06/08 07:19:45;;;;;;;6.50;2.90;;;;;;;24.94;38.40;100695.39;107344;1250;60864;-79
2022/06/08 07:22:13;;;;;;;4.10;2.50;;;;;;;25.06;38.45;100690.19;107229;1250;69828;-76
2022/06/08 07:24:42;;;;;;;8.70;3.30;;;;;;;25.19;38.58;100686.45;107335;1250;63030;-79
2022/06/08 07:27:11;;;;;;;5.90;3.20;;;;;;;25.30;38.98;100687.17;108207;1247;59008;-77
2022/06/08 07:29:40;;;;;;;5.10;3.00;;;;;;;25.38;38.54;100684.81;107828;1250;59071;-76
2022/06/08 07:32:10;;;;;;;5.00;3.00;;;;;;;25.49;38.16;100680.80;107894;1251;73670;-78
2022/06/08 07:34:40;;;;;;;6.60;2.90;;;;;;;25.57;39.08;100683.10;108013;1248;72777;-79
2022/06/08 07:37:09;;;;;;;10.50;2.90;;;;;;;25.63;37.74;100678.48;107587;1250;70424;-78
2022/06/08 07:39:38;;;;;;;6.50;3.10;;;;;;;25.62;37.26;100678.68;107451;1250;74429;-77
2022/06/08 07:42:08;;;;;;;5.90;2.50;;;;;;;25.73;37.32;100679.89;107378;1251;61292;-78
2022/06/08 07:44:37;;;;;;;4.00;2.80;;;;;;;25.88;37.30;100678.86;107840;1247;60549;-80
2022/06/08 07:47:07;;;;;;;5.00;2.90;;;;;;;25.98;36.64;100683.77;107642;1247;62716;-78
2022/06/08 07:49:49;;;;;;;5.10;2.90;;;;;;;26.00;36.53;100684.17;107139;1250;72145;-78
2022/06/08 07:52:22;;;;;;;5.50;3.20;;;;;;;25.99;36.58;100684.98;107608;1251;59190;-80
2022/06/08 07:54:51;;;;;;;5.80;2.90;;;;;;;26.11;36.69;100680.33;107677;1250;74166;-77
2022/06/08 07:57:28;;;;;;;4.80;2.90;;;;;;;26.27;35.66;100681.23;107687;1248;59124;-80
2022/06/08 07:59:58;;;;;;;5.50;2.50;;;;;;;26.23;35.54;100676.92;107861;1250;58867;-80
2022/06/08 08:02:28;;;;;;;5.10;2.40;;;;;;;26.28;33.93;100675.66;107940;1247;72720;-79
2022/06/08 08:04:57;;;;;;;6.00;2.50;;;;;;;26.39;34.70;100675.28;107410;1248;72354;-81
2022/06/08 08:07:26;;;;;;;6.80;2.70;;;;;;;26.41;33.88;100671.57;107707;1248;71359;-80
2022/06/08 08:09:54;;;;;;;5.20;2.90;;;;;;;26.39;33.90;100666.27;107838;1248;73620;-81
2022/06/08 08:12:24;;;;;;;6.50;2.70;;;;;;;26.37;33.83;100663.63;107626;1250;61676;-81
2022/06/08 08:14:52;;;;;;;7.30;3.10;;;;;;;26.62;33.56;100663.15;107429;1250;59064;-77
2022/06/08 08:17:21;;;;;;;6.30;2.50;;;;;;;26.84;33.47;100663.60;107577;1250;63969;-81
2022/06/08 08:19:50;;;;;;;4.10;2.30;;;;;;;26.95;33.49;100660.16;107499;1248;60702;-80
2022/06/08 08:22:21;;;;;;;4.50;2.70;;;;;;;27.00;33.05;100657.20;107585;1250;70196;-79
2022/06/08 08:24:50;;;;;;;4.00;2.40;;;;;;;27.02;33.46;100658.38;107479;1248;74646;-81
2022/06/08 08:27:19;;;;;;;8.80;3.20;;;;;;;27.09;33.17;100653.33;107732;1247;59014;-78
2022/06/08 08:29:50;;;;;;;8.00;3.10;;;;;;;27.19;33.61;100651.02;107525;1247;58333;-79
2022/06/08 08:32:19;;;;;;;5.40;2.80;;;;;;;27.36;33.34;100647.23;107569;1251;72798;-80
2022/06/08 08:34:48;;;;;;;8.60;3.00;;;;;;;27.46;32.23;100644.05;107472;1247;72060;-82
2022/06/08 08:37:17;;;;;;;4.90;3.00;;;;;;;27.37;31.72;100645.98;107736;1250;69592;-82
2022/06/08 08:39:46;;;;;;;5.50;3.00;;;;;;;27.18;31.99;100637.05;107685;1247;73892;-76
2022/06/08 08:42:21;;;;;;;5.00;2.90;;;;;;;27.28;32.02;100641.36;107681;1247;61258;-79
2022/06/08 08:44:55;;;;;;;7.20;3.10;;;;;;;27.50;32.26;100640.72;107745;1248;59092;-80
2022/06/08 08:47:40;;;;;;;5.00;2.70;;;;;;;27.65;31.73;100635.31;107422;1251;62656;-82
2022/06/08 08:50:37;;;;;;;5.10;3.10;;;;;;;27.81;31.90;100634.55;107703;1247;72048;-79
2022/06/08 08:53:24;;;;;;;6.10;2.50;;;;;;;27.92;31.70;100626.45;107520;1247;71007;-77
2022/06/08 08:56:16;;;;;;;5.20;2.90;;;;;;;27.98;31.41;100628.96;107531;1250;63057;-79
2022/06/08 08:58:45;;;;;;;11.00;3.60;;;;;;;27.60;31.72;100623.54;107251;1251;61511;-80
2022/06/08 09:01:34;;;;;;;6.50;2.90;;;;;;;27.60;31.64;100628.05;107541;1247;60361;-80
2022/06/08 09:04:14;;;;;;;6.10;3.50;;;;;;;27.55;31.30;100624.86;107341;1250;63541;-81
2022/06/08 09:06:44;;;;;;;6.40;3.20;;;;;;;26.99;32.33;100626.36;107592;1247;61987;-76
2022/06/08 09:09:19;;;;;;;8.10;3.50;;;;;;;27.06;32.47;100621.24;107666;1247;68855;-78
2022/06/08 09:11:49;;;;;;;10.00;3.70;;;;;;;27.15;32.59;100620.86;107494;1250;63876;-78
2022/06/08 09:15:00;;;;;;;5.90;3.10;;;;;;;27.32;32.39;100619.29;107606;1248;61398;-81
2022/06/08 09:17:38;;;;;;;5.40;3.20;;;;;;;27.49;32.23;100622.89;107728;1247;58972;-78
2022/06/08 09:20:36;;;;;;;7.60;3.10;;;;;;;27.37;31.93;100620.66;107485;1250;62321;-82
2022/06/08 09:23:42;;;;;;;6.80;3.00;;;;;;;27.29;32.21;100616.57;107336;1251;61737;-82
2022/06/08 09:26:26;;;;;;;5.90;3.10;;;;;;;27.05;32.71;100616.45;107860;1247;60451;-79
2022/06/08 09:29:22;;;;;;;8.70;3.50;;;;;;;27.06;33.00;100614.72;107818;1248;73882;-83
2022/06/08 09:31:53;;;;;;;11.10;3.50;;;;;;;27.49;33.00;100608.73;107797;1247;60709;-81
2022/06/08 09:34:27;;;;;;;8.10;3.20;;;;;;;27.83;32.27;100604.83;107988;1249;58960;-79
2022/06/08 09:37:24;;;;;;;7.20;3.40;;;;;;;28.02;31.74;100607.38;107958;1250;63071;-79
2022/06/08 09:39:58;;;;;;;7.50;3.40;;;;;;;28.33;31.32;100601.91;107656;1250;60982;-82
2022/06/08 09:42:54;;;;;;;7.70;3.20;;;;;;;28.63;31.51;100602.11;107622;1248;70500;-81
2022/06/08 09:45:38;;;;;;;8.90;4.00;;;;;;;28.61;31.95;100602.30;107467;1251;62984;-76
2022/06/08 09:52:22;;;;;;;6.20;3.60;;;;;;;28.36;31.06;100600.41;107493;1247;57481;-79
2022/06/08 09:55:08;;;;;;;8.50;3.50;;;;;;;28.46;31.45;100596.55;107633;1248;63560;-77
2022/06/08 09:57:52;;;;;;;9.60;3.20;;;;;;;28.83;31.26;100598.24;107674;1248;61621;-80
2022/06/08 10:00:40;;;;;;;6.70;3.40;;;;;;;29.22;30.38;100594.94;107492;1250;69762;-82
2022/06/08 10:03:15;;;;;;;5.60;3.30;;;;;;;29.53;29.50;100589.29;107582;1247;63719;-81
2022/06/08 10:06:02;;;;;;;10.70;3.60;;;;;;;29.09;30.00;100585.20;107559;1250;58758;-80
2022/06/08 10:08:38;;;;;;;13.30;3.60;;;;;;;29.32;29.89;100587.66;107804;1246;60279;-80
2022/06/08 10:11:42;;;;;;;8.10;3.20;;;;;;;29.58;28.92;100578.34;107806;1247;73361;-81
2022/06/08 10:14:35;;;;;;;7.10;4.10;;;;;;;29.69;28.99;100574.98;107706;1247;60957;-84
2022/06/08 10:17:17;;;;;;;5.50;2.90;;;;;;;29.86;29.03;100574.74;107766;1247;69689;-78
2022/06/08 10:20:01;;;;;;;5.80;3.10;;;;;;;29.96;28.35;100563.62;107510;1248;62700;-77
2022/06/08 10:22:35;;;;;;;;;;;;;;;30.03;28.29;100567.90;107313;1251;59105;-78
2022/06/08 10:25:16;;;;;;;4.60;2.50;;;;;;;29.69;28.09;100563.50;107349;1250;58921;-80
2022/06/08 10:27:57;;;;;;;6.40;3.00;;;;;;;29.91;27.94;100565.00;107558;1247;73545;-82
2022/06/08 10:30:57;;;;;;;6.80;3.20;;;;;;;29.87;28.29;100561.46;107510;1251;72679;-78
2022/06/08 10:34:18;;;;;;;5.50;3.20;;;;;;;30.75;27.42;100555.98;107753;1247;71138;-77
2022/06/08 10:36:54;;;;;;;4.30;3.10;;;;;;;30.68;26.11;100547.96;107831;1247;73523;-78
2022/06/08 10:39:25;;;;;;;9.00;3.20;;;;;;;30.94;25.54;100546.33;107520;1248;58847;-83
2022/06/08 10:42:42;;;;;;;8.70;3.40;;;;;;;31.65;25.42;100544.24;107558;1250;59048;-84
2022/06/08 10:45:22;;;;;;;5.80;3.80;;;;;;;32.32;24.58;100543.87;107715;1247;72966;-80
2022/06/08 10:48:13;;;;;;;8.30;3.70;;;;;;;31.41;24.65;100545.42;107856;1250;72853;-82
2022/06/08 10:50:48;;;;;;;5.70;3.30;;;;;;;30.69;25.18;100544.12;107852;1250;59700;-82
2022/06/08 10:56:23;;;;;;;5.20;3.40;;;;;;;30.59;26.17;100544.80;107629;1250;61382;-81
2022/06/08 10:59:22;;;;;;;5.00;2.90;;;;;;;30.60;26.10;100542.23;107655;1247;61837;-81
2022/06/08 11:02:21;;;;;;;7.80;3.10;;;;;;;31.04;25.83;100540.38;107397;1248;64129;-82
2022/06/08 11:05:07;;;;;;;6.50;3.30;;;;;;;31.62;25.31;100536.86;107488;1250;71768;-81
2022/06/08 11:07:58;;;;;;;7.60;3.60;;;;;;;31.89;24.87;100535.02;107481;1248;69767;-84
2022/06/08 11:10:43;;;;;;;5.90;2.90;;;;;;;32.95;23.97;100534.80;107617;1248;73736;-81
2022/06/08 11:13:23;;;;;;;5.70;2.80;;;;;;;33.74;22.45;100533.05;107488;1250;61948;-79
2022/06/08 11:16:37;;;;;;;9.10;4.50;;;;;;;33.03;23.10;100534.20;107633;1248;61856;-80
2022/06/08 11:19:17;;;;;;;5.60;3.00;;;;;;;33.13;23.01;100532.92;107631;1247;62991;-80
2022/06/08 11:22:02;;;;;;;6.70;3.30;;;;;;;33.43;22.58;100530.82;107284;1249;70623;-79
2022/06/08 11:24:48;;;;;;;7.00;3.30;;;;;;;33.03;22.37;100529.06;107532;1248;69634;-80
2022/06/08 11:27:32;;;;;;;6.10;3.10;;;;;;;33.46;22.37;100528.68;107430;1250;64074;-77
2022/06/08 11:30:27;;;;;;;6.10;3.80;;;;;;;32.56;23.68;100521.96;107861;1247;58810;-82
2022/06/08 11:33:18;;;;;;;6.20;3.80;;;;;;;32.29;24.32;100521.59;107541;1250;59078;-82
2022/06/08 11:36:32;;;;;;;6.80;3.40;;;;;;;31.46;25.32;100528.30;107594;1247;72917;-79
2022/06/08 11:39:35;;;;;;;9.80;3.30;;;;;;;31.05;25.66;100523.95;107715;1248;72970;-78
2022/06/08 11:42:31;;;;;;;4.50;3.20;;;;;;;30.92;26.06;100515.67;107574;1247;71319;-81
2022/06/08 11:45:18;;;;;;;5.00;3.00;;;;;;;31.74;24.56;100517.22;107525;1249;63645;-83
2022/06/08 11:48:15;;;;;;;4.40;2.90;;;;;;;32.26;23.72;100517.86;107699;1247;59132;-78
2022/06/08 11:50:54;;;;;;;4.70;3.10;;;;;;;32.64;23.41;100515.11;107773;1247;61077;-79
2022/06/08 11:53:39;;;;;;;6.30;3.50;;;;;;;32.24;24.25;100516.17;107713;1247;63889;-79
2022/06/08 11:56:30;;;;;;;10.10;3.50;;;;;;;31.66;25.23;100515.02;107640;1247;61466;-84
2022/06/08 11:59:04;;;;;;;8.50;3.30;;;;;;;30.92;26.35;100515.92;107644;1247;61491;-79
2022/06/08 12:01:46;;;;;;;4.30;3.10;;;;;;;30.51;26.77;100512.55;107390;1248;63433;-82
2022/06/08 12:04:20;;;;;;;6.20;3.20;;;;;;;30.63;26.66;100506.53;107484;1247;60282;-79
2022/06/08 12:06:50;;;;;;;9.70;3.70;;;;;;;30.32;27.45;100504.87;107546;1247;62663;-80
2022/06/08 12:09:26;;;;;;;9.70;4.00;;;;;;;30.42;27.59;100506.01;107461;1249;63423;-80
2022/06/08 12:12:13;;;;;;;6.50;3.40;;;;;;;30.21;27.79;100505.33;107567;1247;71711;-81
2022/06/08 12:14:42;;;;;;;7.30;3.50;;;;;;;30.23;27.72;100497.77;107689;1247;59132;-80
2022/06/08 12:17:14;;;;;;;7.10;3.10;;;;;;;30.00;27.30;100492.54;107561;1247;62485;-79